Time;durP1;ratioP1;P1;durP2;ratioP2;P2;SDS_P1;SDS_P2;PMS_P1;PMS_P2;Temp;Humidity;BMP_temperature;BMP_pressure;BME280_temperature;BME280_humidity;BME280_pressure;Samples;Min_cycle;Max_cycle;Signal;HPM_P1;HPM_P2
2022/12/01 00:00:59;;;;;;;69.17;33.00;;;2.90;99.90;;;;;;5027127;28;20201;-68
2022/12/01 00:03:25;;;;;;;68.73;33.13;;;3.00;99.90;;;;;;5027489;28;20222;-66
2022/12/01 00:06:09;;;;;;;67.40;33.43;;;2.80;99.90;;;;;;5018988;28;20563;-67
2022/12/01 00:08:34;;;;;;;69.40;34.93;;;2.70;99.90;;;;;;5024835;28;20190;-68
2022/12/01 00:11:08;;;;;;;68.73;33.47;;;2.70;99.90;;;;;;5023229;28;20214;-68
2022/12/01 00:13:34;;;;;;;77.43;33.97;;;2.80;99.90;;;;;;5026162;28;20205;-67
2022/12/01 00:16:14;;;;;;;73.33;35.13;;;2.80;99.90;;;;;;5024522;28;20215;-68
2022/12/01 00:18:40;;;;;;;77.97;34.83;;;2.90;99.90;;;;;;5025500;28;20207;-69
2022/12/01 00:21:11;;;;;;;73.97;33.93;;;3.00;99.90;;;;;;5024114;28;20203;-67
2022/12/01 00:23:37;;;;;;;73.40;34.20;;;3.00;99.90;;;;;;5025315;28;20224;-71
2022/12/01 00:26:03;;;;;;;70.23;34.40;;;3.10;99.90;;;;;;5024980;28;20205;-66
2022/12/01 00:28:29;;;;;;;78.50;34.63;;;3.10;99.90;;;;;;5023654;28;20218;-70
2022/12/01 00:30:54;;;;;;;73.20;33.27;;;3.00;99.90;;;;;;5028779;28;20201;-70
2022/12/01 00:33:20;;;;;;;64.20;33.40;;;2.90;99.90;;;;;;5021232;28;20205;-70
2022/12/01 00:35:45;;;;;;;66.10;32.93;;;2.90;99.90;;;;;;5026103;28;20214;-70
2022/12/01 00:38:11;;;;;;;75.93;33.37;;;2.90;99.90;;;;;;5027484;28;20355;-68
2022/12/01 00:40:36;;;;;;;65.53;33.43;;;2.90;99.90;;;;;;5024657;28;20664;-68
2022/12/01 00:43:02;;;;;;;61.07;31.87;;;2.90;99.90;;;;;;5021810;28;20538;-69
2022/12/01 00:45:27;;;;;;;73.70;33.50;;;2.90;99.90;;;;;;5019810;28;20206;-81
2022/12/01 00:47:53;;;;;;;65.13;32.50;;;2.80;99.90;;;;;;5019831;28;20244;-68
2022/12/01 00:50:18;;;;;;;58.83;30.00;;;2.70;99.90;;;;;;5024924;28;20266;-70
2022/12/01 00:52:43;;;;;;;56.00;29.70;;;2.70;99.90;;;;;;5018869;28;20206;-70
2022/12/01 00:55:09;;;;;;;59.70;31.37;;;2.70;99.90;;;;;;5020646;28;20350;-67
2022/12/01 00:57:34;;;;;;;58.90;29.63;;;2.60;99.90;;;;;;5024046;28;20208;-67
2022/12/01 01:00:00;;;;;;;58.93;29.43;;;2.50;99.90;;;;;;5019969;28;20203;-72
2022/12/01 01:02:25;;;;;;;57.83;28.33;;;2.50;99.90;;;;;;5023390;28;20221;-84
2022/12/01 01:04:51;;;;;;;62.73;29.33;;;2.50;99.90;;;;;;5025066;28;20190;-80
2022/12/01 01:07:16;;;;;;;50.90;28.60;;;2.60;99.90;;;;;;5023203;28;20198;-68
2022/12/01 01:09:42;;;;;;;62.70;29.00;;;2.70;99.90;;;;;;5022599;28;20193;-67
2022/12/01 01:12:07;;;;;;;65.23;32.73;;;2.70;99.90;;;;;;5023625;28;20251;-68
2022/12/01 01:14:33;;;;;;;66.30;30.60;;;2.70;99.90;;;;;;5021362;28;20199;-67
2022/12/01 01:16:58;;;;;;;61.13;30.43;;;2.80;99.90;;;;;;5026176;28;20287;-67
2022/12/01 01:19:24;;;;;;;65.60;30.73;;;2.90;99.90;;;;;;5027891;28;20313;-68
2022/12/01 01:21:49;;;;;;;63.57;30.30;;;3.00;99.90;;;;;;5023358;28;20181;-65
2022/12/01 01:24:15;;;;;;;67.57;32.87;;;2.90;99.90;;;;;;5024388;28;20219;-75
2022/12/01 01:26:40;;;;;;;68.57;33.50;;;2.90;99.90;;;;;;5023207;28;20190;-66
2022/12/01 01:29:06;;;;;;;61.70;32.80;;;3.00;99.90;;;;;;5024052;28;20277;-69
2022/12/01 01:31:32;;;;;;;61.77;33.90;;;3.00;99.90;;;;;;5020254;28;20692;-66
2022/12/01 01:33:58;;;;;;;59.10;31.90;;;3.00;99.90;;;;;;5020076;28;20215;-67
2022/12/01 01:36:24;;;;;;;67.93;33.40;;;2.90;99.90;;;;;;5023947;28;20276;-79
2022/12/01 01:38:50;;;;;;;65.47;32.83;;;2.90;99.90;;;;;;5023693;28;20693;-69
2022/12/01 01:41:17;;;;;;;66.90;31.93;;;2.80;99.90;;;;;;5026109;28;20266;-66
2022/12/01 01:43:47;;;;;;;74.10;35.80;;;2.80;99.90;;;;;;5030304;28;20220;-64
2022/12/01 01:46:16;;;;;;;66.07;32.57;;;2.80;99.90;;;;;;5021037;28;20207;-64
2022/12/01 01:48:48;;;;;;;67.73;31.43;;;2.80;99.90;;;;;;5028326;28;20202;-66
2022/12/01 01:51:16;;;;;;;71.27;33.57;;;2.70;99.90;;;;;;5029649;28;20215;-66
2022/12/01 01:53:43;;;;;;;63.03;31.90;;;2.70;99.90;;;;;;5028190;28;20777;-65
2022/12/01 01:56:09;;;;;;;72.33;33.80;;;2.70;99.90;;;;;;5029821;28;20227;-64
2022/12/01 01:58:36;;;;;;;63.60;30.90;;;2.60;99.90;;;;;;5028543;28;20863;-63
2022/12/01 02:01:02;;;;;;;66.20;32.00;;;2.70;99.90;;;;;;5019033;28;20206;-68
2022/12/01 02:03:29;;;;;;;71.57;32.33;;;2.70;99.90;;;;;;5023239;28;20221;-64
2022/12/01 02:05:54;;;;;;;76.40;33.63;;;2.60;99.90;;;;;;5024485;28;20253;-63
2022/12/01 02:08:20;;;;;;;68.77;32.90;;;2.70;99.90;;;;;;5027929;28;20229;-64
2022/12/01 02:11:10;;;;;;;74.27;34.77;;;2.80;99.90;;;;;;5019692;28;20246;-67
2022/12/01 02:13:51;;;;;;;73.27;31.93;;;2.80;99.90;;;;;;5033736;28;20209;-67
2022/12/01 02:16:32;;;;;;;74.87;34.07;;;2.80;99.90;;;;;;5024470;28;20234;-67
2022/12/01 02:19:37;;;;;;;71.07;33.93;;;2.80;99.90;;;;;;5027141;28;20690;-69
2022/12/01 02:22:21;;;;;;;75.03;31.40;;;2.80;99.90;;;;;;5022087;28;20194;-64
2022/12/01 02:25:15;;;;;;;71.97;32.77;;;2.80;99.90;;;;;;5019989;28;20212;-63
2022/12/01 02:28:12;;;;;;;72.07;33.70;;;2.80;99.90;;;;;;5027592;28;20202;-63
2022/12/01 02:31:02;;;;;;;70.23;32.47;;;2.60;99.90;;;;;;5026388;28;20522;-63
2022/12/01 02:33:36;;;;;;;64.73;30.33;;;2.60;99.90;;;;;;5027657;28;20206;-69
2022/12/01 02:36:33;;;;;;;72.77;35.10;;;2.50;99.90;;;;;;5025977;28;20207;-65
2022/12/01 02:39:24;;;;;;;68.90;33.20;;;2.50;99.90;;;;;;5021480;28;20213;-64
2022/12/01 02:41:55;;;;;;;72.93;31.93;;;2.50;99.90;;;;;;5024236;28;20207;-67
2022/12/01 02:44:28;;;;;;;65.80;30.90;;;2.50;99.90;;;;;;5028786;28;20714;-69
2022/12/01 02:47:00;;;;;;;62.07;31.03;;;2.40;99.90;;;;;;5033622;28;20212;-68
2022/12/01 02:49:32;;;;;;;68.20;32.90;;;2.40;99.90;;;;;;5025099;28;20739;-65
2022/12/01 02:51:58;;;;;;;75.87;32.77;;;2.50;99.90;;;;;;5033045;28;20213;-67
2022/12/01 02:54:28;;;;;;;70.43;32.50;;;2.50;99.90;;;;;;5030297;28;20573;-64
2022/12/01 02:56:53;;;;;;;72.43;33.13;;;2.50;99.90;;;;;;5028030;28;20244;-63
2022/12/01 02:59:19;;;;;;;80.87;33.43;;;2.50;99.90;;;;;;5035363;28;20261;-64
2022/12/01 03:01:44;;;;;;;65.93;32.77;;;2.40;99.90;;;;;;5028397;28;20295;-64
2022/12/01 03:04:52;;;;;;;64.30;33.30;;;2.40;99.90;;;;;;5024972;28;20354;-63
2022/12/01 03:07:46;;;;;;;61.40;29.83;;;2.40;99.90;;;;;;5027476;28;20195;-64
2022/12/01 03:10:43;;;;;;;65.23;31.00;;;2.50;99.90;;;;;;5025451;28;20206;-64
2022/12/01 03:13:23;;;;;;;71.63;33.43;;;2.60;99.90;;;;;;5025369;28;20249;-67
2022/12/01 03:16:11;;;;;;;78.17;33.90;;;2.60;99.90;;;;;;5022747;28;20206;-63
2022/12/01 03:19:08;;;;;;;73.37;33.17;;;2.60;99.90;;;;;;5026167;28;20268;-64
2022/12/01 03:21:43;;;;;;;75.00;34.17;;;2.60;99.90;;;;;;5015079;28;20204;-62
2022/12/01 03:24:18;;;;;;;66.97;32.40;;;2.60;99.90;;;;;;5033058;28;20741;-65
2022/12/01 03:26:50;;;;;;;92.27;36.50;;;2.70;99.90;;;;;;5029975;28;20863;-65
2022/12/01 03:29:40;;;;;;;72.30;33.00;;;2.50;99.90;;;;;;5020273;28;20670;-63
2022/12/01 03:32:18;;;;;;;73.47;36.03;;;2.60;99.90;;;;;;5031231;28;20202;-63
2022/12/01 03:35:03;;;;;;;75.50;36.83;;;2.60;99.90;;;;;;5032185;28;20282;-65
2022/12/01 03:37:35;;;;;;;75.20;34.77;;;2.70;99.90;;;;;;5023274;28;20678;-66
2022/12/01 03:40:05;;;;;;;77.17;35.80;;;2.70;99.90;;;;;;5033038;28;20203;-68
2022/12/01 03:42:36;;;;;;;81.87;35.77;;;2.70;99.90;;;;;;5026500;28;20221;-66
2022/12/01 03:45:08;;;;;;;73.83;35.40;;;2.60;99.90;;;;;;5026027;28;20257;-64
2022/12/01 03:47:36;;;;;;;70.07;32.40;;;2.60;99.90;;;;;;5025114;28;20202;-65
2022/12/01 03:50:04;;;;;;;86.80;37.43;;;2.70;99.90;;;;;;5026285;28;20808;-68
2022/12/01 03:52:57;;;;;;;78.43;35.20;;;2.70;99.90;;;;;;5026461;28;20612;-64
2022/12/01 03:55:26;;;;;;;82.60;36.80;;;2.60;99.90;;;;;;5023360;28;20435;-68
2022/12/01 03:58:07;;;;;;;77.03;35.87;;;2.60;99.90;;;;;;5025324;28;20222;-64
2022/12/01 04:00:33;;;;;;;80.87;38.30;;;2.60;99.90;;;;;;5025990;28;20254;-64
2022/12/01 04:03:03;;;;;;;88.70;38.37;;;2.50;99.90;;;;;;5018743;28;20216;-67
2022/12/01 04:05:31;;;;;;;89.33;36.97;;;2.40;99.90;;;;;;5025910;28;20205;-71
2022/12/01 04:07:57;;;;;;;81.87;35.40;;;2.40;99.90;;;;;;5025592;28;20209;-62
2022/12/01 04:10:22;;;;;;;90.50;34.97;;;2.40;99.90;;;;;;5024404;28;20212;-65
2022/12/01 04:12:48;;;;;;;78.10;36.70;;;2.50;99.90;;;;;;5025973;28;20593;-66
2022/12/01 04:15:14;;;;;;;77.53;35.03;;;2.50;99.90;;;;;;5025642;28;20198;-66
2022/12/01 04:17:43;;;;;;;86.87;38.43;;;2.50;99.90;;;;;;5026695;28;20204;-65
2022/12/01 04:20:12;;;;;;;84.60;39.43;;;2.40;99.90;;;;;;5026399;28;20233;-66
2022/12/01 04:22:38;;;;;;;85.30;38.77;;;2.50;99.90;;;;;;5026074;28;20315;-67
2022/12/01 04:25:05;;;;;;;86.43;38.87;;;2.50;99.90;;;;;;5022983;28;20293;-65
2022/12/01 04:27:31;;;;;;;85.60;37.87;;;2.60;99.90;;;;;;5025405;28;20272;-65
2022/12/01 04:29:56;;;;;;;91.47;36.50;;;2.70;99.90;;;;;;5028062;28;20187;-69
2022/12/01 04:32:22;;;;;;;82.13;39.17;;;2.70;99.90;;;;;;5034455;28;20197;-67
2022/12/01 04:34:47;;;;;;;89.60;39.63;;;2.80;99.90;;;;;;5027371;28;20740;-65
2022/12/01 04:37:13;;;;;;;80.60;36.50;;;2.80;99.90;;;;;;5023461;28;20820;-65
2022/12/01 04:39:40;;;;;;;86.80;36.93;;;2.90;99.90;;;;;;5030510;28;20197;-61
2022/12/01 04:42:06;;;;;;;74.40;35.50;;;2.80;99.90;;;;;;5035302;28;20259;-64
2022/12/01 04:44:32;;;;;;;80.87;35.67;;;2.70;99.90;;;;;;5035477;28;20192;-63
2022/12/01 04:46:57;;;;;;;92.40;37.70;;;2.60;99.90;;;;;;5036167;28;20197;-63
2022/12/01 04:49:23;;;;;;;83.90;37.10;;;2.50;99.90;;;;;;5034562;28;20226;-62
2022/12/01 04:51:49;;;;;;;92.13;38.30;;;2.40;99.90;;;;;;5026158;28;20670;-63
2022/12/01 04:54:15;;;;;;;100.70;38.60;;;2.40;99.90;;;;;;5035816;28;20224;-63
2022/12/01 04:56:41;;;;;;;82.23;36.90;;;2.40;99.90;;;;;;5035443;28;20232;-63
2022/12/01 04:59:07;;;;;;;80.80;35.87;;;2.40;99.90;;;;;;5035320;28;20309;-64
2022/12/01 05:01:32;;;;;;;79.53;38.33;;;2.40;99.90;;;;;;5035224;28;20667;-66
2022/12/01 05:03:58;;;;;;;85.67;37.80;;;2.50;99.90;;;;;;5033517;28;20214;-64
2022/12/01 05:06:26;;;;;;;77.00;36.97;;;2.50;99.90;;;;;;5035529;28;20232;-65
2022/12/01 05:08:57;;;;;;;81.97;39.47;;;2.40;99.90;;;;;;5034735;28;20740;-65
2022/12/01 05:11:23;;;;;;;83.67;36.03;;;2.40;99.90;;;;;;5035181;28;20799;-65
2022/12/01 05:13:49;;;;;;;82.70;36.50;;;2.40;99.90;;;;;;5036846;28;20200;-65
2022/12/01 05:16:24;;;;;;;79.80;36.53;;;2.40;99.90;;;;;;5039396;28;20219;-65
2022/12/01 05:20:55;;;;;;;88.83;37.00;;;2.30;99.90;;;;;;5028836;28;20197;-63
2022/12/01 05:21:38;;;;;;;79.50;38.93;;;2.30;99.90;;;;;;5026770;28;20295;-63
2022/12/01 05:24:05;;;;;;;81.73;37.30;;;2.30;99.90;;;;;;5029641;28;20583;-64
2022/12/01 05:26:30;;;;;;;70.33;35.27;;;2.30;99.90;;;;;;5027572;28;20603;-64
2022/12/01 05:28:56;;;;;;;77.93;36.33;;;2.30;99.90;;;;;;5029356;28;20712;-64
2022/12/01 05:31:21;;;;;;;79.40;38.23;;;2.30;99.90;;;;;;5028985;28;20200;-64
2022/12/01 05:33:46;;;;;;;70.10;33.27;;;2.30;99.90;;;;;;5029035;28;20209;-64
2022/12/01 05:36:12;;;;;;;68.80;33.73;;;2.30;99.90;;;;;;5028688;28;20247;-64
2022/12/01 05:38:37;;;;;;;66.70;34.13;;;2.40;99.90;;;;;;5028718;28;20670;-64
2022/12/01 05:41:03;;;;;;;75.23;37.07;;;2.40;99.90;;;;;;5027353;28;20235;-64
2022/12/01 05:43:28;;;;;;;74.57;36.40;;;2.30;99.90;;;;;;5029051;28;20227;-64
2022/12/01 05:45:54;;;;;;;78.30;35.27;;;2.30;99.90;;;;;;5030592;28;20211;-65
2022/12/01 05:48:20;;;;;;;75.00;35.40;;;2.30;99.90;;;;;;5030423;28;20228;-65
2022/12/01 05:50:45;;;;;;;68.30;35.50;;;2.30;99.90;;;;;;5029225;28;20263;-66
2022/12/01 05:53:12;;;;;;;80.07;38.17;;;2.30;99.90;;;;;;5027035;28;20231;-66
2022/12/01 05:55:38;;;;;;;69.10;35.07;;;2.40;99.90;;;;;;5028457;28;20216;-65
2022/12/01 05:58:03;;;;;;;83.60;38.17;;;2.50;99.90;;;;;;5034826;28;20232;-65
2022/12/01 06:00:29;;;;;;;74.80;36.23;;;2.60;99.90;;;;;;5038421;28;20381;-65
2022/12/01 06:02:54;;;;;;;70.80;34.97;;;2.60;99.90;;;;;;5037688;28;20216;-64
2022/12/01 06:05:20;;;;;;;72.83;37.10;;;2.60;99.90;;;;;;5041434;28;20296;-65
2022/12/01 06:07:45;;;;;;;71.03;37.27;;;2.70;99.90;;;;;;5033873;28;20199;-65
2022/12/01 06:10:11;;;;;;;71.87;37.90;;;2.60;99.90;;;;;;5037202;28;20713;-64
2022/12/01 06:12:37;;;;;;;84.80;39.23;;;2.70;99.90;;;;;;5038129;28;20552;-65
2022/12/01 06:15:03;;;;;;;77.30;37.27;;;2.60;99.90;;;;;;5039513;28;20206;-65
2022/12/01 06:17:29;;;;;;;75.50;37.23;;;2.50;99.90;;;;;;5036622;28;20211;-65
2022/12/01 06:19:55;;;;;;;81.07;37.90;;;2.40;99.90;;;;;;5036441;28;20876;-64
2022/12/01 06:22:20;;;;;;;75.57;37.87;;;2.40;99.90;;;;;;5034133;28;20205;-65
2022/12/01 06:24:46;;;;;;;68.07;38.77;;;2.40;99.90;;;;;;5026355;28;20671;-65
2022/12/01 06:27:11;;;;;;;68.50;37.47;;;2.50;99.90;;;;;;5028152;28;20212;-65
2022/12/01 06:29:37;;;;;;;74.83;37.43;;;2.40;99.90;;;;;;5027705;28;20692;-64
2022/12/01 06:32:03;;;;;;;65.87;36.23;;;2.30;99.90;;;;;;5027913;28;20208;-65
2022/12/01 06:34:28;;;;;;;73.60;37.83;;;2.30;99.90;;;;;;5027215;28;20213;-65
2022/12/01 06:36:54;;;;;;;71.20;36.47;;;2.30;99.90;;;;;;5028489;28;20199;-65
2022/12/01 06:39:19;;;;;;;73.83;35.50;;;2.30;99.90;;;;;;5027109;28;20573;-66
2022/12/01 06:41:44;;;;;;;80.37;37.03;;;2.20;99.90;;;;;;5028515;28;20224;-65
2022/12/01 06:44:10;;;;;;;80.23;37.60;;;2.30;99.90;;;;;;5028424;28;20329;-65
2022/12/01 06:46:36;;;;;;;73.50;34.33;;;2.30;99.90;;;;;;5026187;28;20192;-65
2022/12/01 06:49:02;;;;;;;69.87;38.67;;;2.20;99.90;;;;;;5027575;28;20200;-65
2022/12/01 06:51:27;;;;;;;73.50;38.03;;;2.20;99.90;;;;;;5026844;28;20753;-65
2022/12/01 06:53:54;;;;;;;70.60;36.50;;;2.10;99.90;;;;;;5026333;28;20645;-65
2022/12/01 06:56:20;;;;;;;74.50;36.40;;;2.00;99.90;;;;;;5030411;28;20257;-66
2022/12/01 06:58:47;;;;;;;67.87;36.77;;;2.00;99.90;;;;;;5024934;28;20313;-64
2022/12/01 07:01:13;;;;;;;65.90;37.07;;;2.10;99.90;;;;;;5023758;28;20297;-65
2022/12/01 07:03:38;;;;;;;75.87;37.60;;;2.20;99.90;;;;;;5028397;28;20437;-64
2022/12/01 07:06:04;;;;;;;75.87;37.93;;;2.30;99.90;;;;;;5028704;28;20295;-65
2022/12/01 07:08:31;;;;;;;68.20;37.70;;;2.40;99.90;;;;;;5029072;28;20201;-62
2022/12/01 07:11:06;;;;;;;70.07;39.80;;;2.40;99.90;;;;;;5028638;28;20193;-64
2022/12/01 07:13:32;;;;;;;71.53;36.73;;;2.50;99.90;;;;;;5026561;28;20265;-64
2022/12/01 07:15:57;;;;;;;72.30;37.23;;;2.60;99.90;;;;;;5027240;28;20230;-65
2022/12/01 07:18:23;;;;;;;78.97;38.93;;;2.60;99.90;;;;;;5036530;28;20260;-64
2022/12/01 07:20:48;;;;;;;67.57;38.87;;;2.50;99.90;;;;;;5026412;28;20212;-65
2022/12/01 07:23:14;;;;;;;70.37;37.30;;;2.50;99.90;;;;;;5027460;28;20224;-62
2022/12/01 07:25:39;;;;;;;81.70;39.90;;;2.50;99.90;;;;;;5027571;28;20188;-64
2022/12/01 07:28:05;;;;;;;74.63;37.03;;;2.50;99.90;;;;;;5030344;28;20188;-63
2022/12/01 07:30:30;;;;;;;81.90;41.27;;;2.40;99.90;;;;;;5025123;28;20343;-69
2022/12/01 07:32:56;;;;;;;75.27;38.60;;;2.30;99.90;;;;;;5027628;28;20303;-66
2022/12/01 07:35:21;;;;;;;81.03;39.23;;;2.40;99.90;;;;;;5024836;28;20201;-63
2022/12/01 07:37:52;;;;;;;79.50;41.33;;;2.40;99.90;;;;;;5024612;28;20835;-65
2022/12/01 07:40:17;;;;;;;74.40;40.57;;;2.40;99.90;;;;;;5028344;28;20266;-62
2022/12/01 07:42:43;;;;;;;84.57;39.97;;;2.40;99.90;;;;;;5024344;28;20256;-64
2022/12/01 07:45:08;;;;;;;91.13;41.33;;;2.50;99.90;;;;;;5028756;28;20600;-67
2022/12/01 07:47:34;;;;;;;72.97;41.13;;;2.50;99.90;;;;;;5025795;28;20196;-69
2022/12/01 07:49:59;;;;;;;89.70;42.57;;;2.50;99.90;;;;;;5026834;28;20186;-67
2022/12/01 07:52:25;;;;;;;90.00;42.57;;;2.50;99.90;;;;;;5028189;28;20208;-66
2022/12/01 07:54:51;;;;;;;91.07;42.73;;;2.40;99.90;;;;;;5027915;28;20280;-63
2022/12/01 07:57:27;;;;;;;88.20;43.93;;;2.50;99.90;;;;;;5054466;28;20666;-61
2022/12/01 07:59:52;;;;;;;88.57;44.53;;;2.50;99.90;;;;;;5055136;28;20674;-64
2022/12/01 08:02:18;;;;;;;91.43;43.53;;;2.50;99.90;;;;;;5052909;28;20697;-65
2022/12/01 08:04:43;;;;;;;95.53;44.17;;;2.50;99.90;;;;;;5043305;28;20205;-65
2022/12/01 08:07:08;;;;;;;93.87;46.63;;;2.40;99.90;;;;;;5046395;28;20670;-65
2022/12/01 08:09:34;;;;;;;91.37;44.67;;;2.50;99.90;;;;;;5050588;28;20201;-68
2022/12/01 08:11:59;;;;;;;102.93;46.13;;;2.50;99.90;;;;;;5053270;28;20220;-68
2022/12/01 08:14:25;;;;;;;101.90;48.53;;;2.40;99.90;;;;;;5056622;28;20218;-62
2022/12/01 08:16:50;;;;;;;107.97;50.10;;;2.40;99.90;;;;;;5062152;28;20648;-62
2022/12/01 08:19:16;;;;;;;105.97;50.17;;;2.40;99.90;;;;;;5060982;28;20197;-62
2022/12/01 08:21:41;;;;;;;111.70;49.40;;;2.40;99.90;;;;;;5060481;28;20194;-61
2022/12/01 08:24:09;;;;;;;109.63;48.53;;;2.40;99.90;;;;;;5054796;28;20187;-63
2022/12/01 08:26:34;;;;;;;117.83;52.43;;;2.40;99.90;;;;;;5055454;28;20208;-61
2022/12/01 08:29:00;;;;;;;104.80;49.20;;;2.40;99.90;;;;;;5050052;28;20279;-62
2022/12/01 08:31:29;;;;;;;101.77;48.60;;;2.40;99.90;;;;;;5061921;28;20264;-65
2022/12/01 08:33:55;;;;;;;104.17;51.87;;;2.60;99.90;;;;;;5060147;28;20226;-60
2022/12/01 08:36:21;;;;;;;107.97;48.37;;;2.60;99.90;;;;;;5056952;28;20224;-60
2022/12/01 08:38:50;;;;;;;105.63;50.23;;;2.60;99.90;;;;;;5052408;28;20200;-60
2022/12/01 08:41:16;;;;;;;109.00;49.47;;;2.60;99.90;;;;;;5051932;28;20208;-60
2022/12/01 08:43:43;;;;;;;114.37;50.70;;;2.60;99.90;;;;;;5051759;28;20204;-73
2022/12/01 08:46:11;;;;;;;120.10;52.60;;;2.60;99.90;;;;;;5051437;28;20206;-64
2022/12/01 08:48:36;;;;;;;111.60;49.93;;;2.60;99.90;;;;;;5043324;28;20223;-66
2022/12/01 08:51:04;;;;;;;119.57;48.80;;;2.60;99.90;;;;;;5052470;28;20266;-66
2022/12/01 08:53:30;;;;;;;98.83;47.57;;;2.50;99.90;;;;;;5056726;28;20726;-65
2022/12/01 08:56:00;;;;;;;97.90;44.73;;;2.50;99.90;;;;;;5028237;28;20231;-65
2022/12/01 08:58:26;;;;;;;105.93;48.77;;;2.50;99.90;;;;;;5029477;28;20208;-65
2022/12/01 09:00:52;;;;;;;94.10;45.70;;;2.50;99.90;;;;;;5030084;28;20196;-65
2022/12/01 09:03:17;;;;;;;92.67;43.80;;;2.50;99.90;;;;;;5030296;28;20205;-64
2022/12/01 09:05:43;;;;;;;103.47;46.93;;;2.40;99.90;;;;;;5032293;28;20200;-64
2022/12/01 09:11:15;;;;;;;109.83;48.13;;;2.40;99.90;;;;;;4993865;28;20202;-63
2022/12/01 09:13:42;;;;;;;93.57;44.20;;;2.50;99.90;;;;;;4995214;28;20200;-64
2022/12/01 09:16:11;;;;;;;109.60;48.53;;;2.70;99.90;;;;;;5006429;28;20617;-64
2022/12/01 09:18:37;;;;;;;91.23;45.60;;;2.70;99.90;;;;;;5018271;28;20662;-63
2022/12/01 09:21:11;;;;;;;101.97;46.97;;;2.70;99.90;;;;;;5017712;28;20201;-64
2022/12/01 09:23:38;;;;;;;99.27;48.37;;;2.70;99.90;;;;;;5006697;28;20197;-64
2022/12/01 09:26:04;;;;;;;104.73;48.33;;;2.70;99.90;;;;;;5007996;28;20206;-65
2022/12/01 09:28:29;;;;;;;104.40;48.20;;;2.70;99.90;;;;;;5007517;28;20263;-65
2022/12/01 09:30:55;;;;;;;104.20;49.87;;;2.70;99.90;;;;;;5005781;28;20205;-64
2022/12/01 09:33:20;;;;;;;108.00;50.30;;;2.70;99.90;;;;;;5006687;28;20240;-65
2022/12/01 09:35:45;;;;;;;113.00;51.13;;;2.70;99.90;;;;;;5007896;28;20238;-65
2022/12/01 09:38:11;;;;;;;129.23;53.90;;;2.80;99.90;;;;;;5008022;28;20740;-64
2022/12/01 09:40:39;;;;;;;126.50;52.13;;;2.80;99.90;;;;;;5008099;28;20209;-64
2022/12/01 09:43:14;;;;;;;113.47;52.13;;;2.80;99.90;;;;;;5008064;28;20209;-64
2022/12/01 09:45:44;;;;;;;109.43;52.30;;;2.70;99.90;;;;;;5006885;28;20202;-64
2022/12/01 09:48:24;;;;;;;110.87;53.23;;;2.50;99.90;;;;;;5007072;28;20217;-65
2022/12/01 09:50:49;;;;;;;107.73;49.50;;;2.50;99.90;;;;;;5003876;28;20217;-65
2022/12/01 09:53:20;;;;;;;112.23;53.53;;;2.50;99.90;;;;;;5007881;28;21048;-66
2022/12/01 09:55:47;;;;;;;110.77;49.30;;;2.60;99.90;;;;;;5007191;28;20234;-65
2022/12/01 09:58:28;;;;;;;105.97;51.47;;;2.70;99.90;;;;;;5006662;28;20206;-65
2022/12/01 10:00:54;;;;;;;115.13;53.77;;;2.70;99.90;;;;;;5006933;28;20206;-65
2022/12/01 10:03:45;;;;;;;113.47;50.93;;;2.70;99.90;;;;;;5006774;28;20248;-65
2022/12/01 10:06:21;;;;;;;108.97;48.33;;;2.80;99.90;;;;;;5006750;28;20218;-64
2022/12/01 10:09:02;;;;;;;106.43;51.17;;;2.80;99.90;;;;;;5006599;28;20212;-66
2022/12/01 10:11:34;;;;;;;107.23;49.53;;;2.90;99.90;;;;;;5008537;28;20267;-65
2022/12/01 10:14:02;;;;;;;101.40;47.23;;;3.00;99.90;;;;;;5003600;28;20823;-64
2022/12/01 10:16:35;;;;;;;91.17;45.97;;;3.00;99.90;;;;;;5006980;28;20269;-63
2022/12/01 10:19:12;;;;;;;105.30;50.30;;;3.00;99.90;;;;;;5006561;28;20209;-63
2022/12/01 10:22:17;;;;;;;95.77;44.47;;;2.90;99.90;;;;;;5006190;28;20286;-66
2022/12/01 10:25:02;;;;;;;100.93;44.87;;;2.90;99.90;;;;;;5005290;28;20229;-64
2022/12/01 10:27:49;;;;;;;98.87;47.53;;;2.90;99.90;;;;;;5006148;28;20204;-63
2022/12/01 10:30:17;;;;;;;102.77;47.67;;;3.00;99.90;;;;;;5007211;28;20196;-63
2022/12/01 10:32:55;;;;;;;95.53;43.70;;;3.10;99.90;;;;;;5006978;28;20206;-66
2022/12/01 10:35:25;;;;;;;99.93;46.37;;;3.00;99.90;;;;;;5004557;28;20339;-65
2022/12/01 10:37:56;;;;;;;92.93;46.73;;;2.90;99.90;;;;;;5006266;28;20200;-64
2022/12/01 10:40:22;;;;;;;91.17;45.90;;;2.70;99.90;;;;;;5006068;28;20567;-64
2022/12/01 10:42:49;;;;;;;99.20;46.40;;;2.80;99.90;;;;;;5009870;28;20642;-64
2022/12/01 10:45:20;;;;;;;79.33;42.93;;;2.80;99.90;;;;;;5000545;28;20475;-66
2022/12/01 10:48:09;;;;;;;99.70;45.23;;;2.80;99.90;;;;;;5006767;28;20205;-66
2022/12/01 10:50:35;;;;;;;94.53;45.47;;;2.90;99.90;;;;;;5005838;28;20288;-66
2022/12/01 10:53:02;;;;;;;95.43;44.80;;;3.00;99.90;;;;;;5006173;28;20184;-65
2022/12/01 10:55:31;;;;;;;89.83;44.47;;;3.10;99.90;;;;;;5005796;28;20222;-65
2022/12/01 10:58:01;;;;;;;89.07;43.07;;;3.20;99.90;;;;;;5010117;28;20672;-65
2022/12/01 11:00:34;;;;;;;86.03;45.77;;;3.20;99.90;;;;;;5002028;28;20206;-65
2022/12/01 11:02:59;;;;;;;80.40;42.17;;;3.00;99.90;;;;;;5006284;28;20199;-64
2022/12/01 11:05:31;;;;;;;85.13;42.63;;;3.00;99.90;;;;;;5006660;28;20268;-64
2022/12/01 11:07:57;;;;;;;80.40;41.43;;;3.00;99.90;;;;;;5003479;28;20684;-63
2022/12/01 11:10:27;;;;;;;89.67;42.50;;;3.10;99.90;;;;;;5006532;28;20683;-64
2022/12/01 11:13:12;;;;;;;81.30;42.40;;;3.00;99.90;;;;;;5007388;28;20249;-70
2022/12/01 11:15:47;;;;;;;84.63;43.87;;;2.90;99.90;;;;;;4990000;28;20235;-65
2022/12/01 11:18:33;;;;;;;80.93;41.53;;;3.00;99.90;;;;;;5010433;28;20756;-64
2022/12/01 11:21:14;;;;;;;77.80;43.00;;;3.10;99.90;;;;;;5010649;28;20550;-66
2022/12/01 11:23:47;;;;;;;88.23;43.33;;;3.10;99.90;;;;;;5010600;28;20206;-66
2022/12/01 11:26:24;;;;;;;82.40;42.47;;;3.10;99.90;;;;;;5015416;28;20650;-64
2022/12/01 11:28:59;;;;;;;81.43;44.50;;;3.10;99.90;;;;;;5013965;28;20274;-66
2022/12/01 11:31:39;;;;;;;77.03;42.67;;;3.10;99.90;;;;;;5015254;28;20202;-65
2022/12/01 11:34:06;;;;;;;83.23;40.67;;;3.20;99.90;;;;;;5011232;28;20260;-66
2022/12/01 11:36:37;;;;;;;76.17;40.37;;;3.20;99.90;;;;;;5006943;28;20330;-66
2022/12/01 11:39:03;;;;;;;81.67;40.47;;;3.20;99.90;;;;;;5005351;28;20183;-63
2022/12/01 11:41:39;;;;;;;75.10;40.43;;;3.10;99.90;;;;;;5004247;28;20195;-64
2022/12/01 11:44:16;;;;;;;74.43;39.93;;;3.20;99.90;;;;;;5006818;28;20201;-65
2022/12/01 11:46:42;;;;;;;70.60;39.97;;;3.30;99.90;;;;;;5019743;28;20722;-65
2022/12/01 11:49:16;;;;;;;77.17;38.60;;;3.40;99.90;;;;;;5021222;28;20230;-68
2022/12/01 11:51:42;;;;;;;79.80;41.37;;;3.40;99.90;;;;;;5023415;28;20247;-68
2022/12/01 11:54:16;;;;;;;78.27;41.10;;;3.40;99.90;;;;;;5018636;28;20667;-66
2022/12/01 11:56:43;;;;;;;82.83;43.63;;;3.40;99.90;;;;;;5015937;28;20242;-66
2022/12/01 11:59:13;;;;;;;72.20;41.43;;;3.30;99.90;;;;;;5024461;28;20270;-67
2022/12/01 12:01:52;;;;;;;72.37;39.60;;;3.30;99.90;;;;;;5024157;28;20215;-66
2022/12/01 12:04:55;;;;;;;73.97;41.53;;;3.40;99.90;;;;;;5021718;28;20210;-67
2022/12/01 12:07:38;;;;;;;84.37;43.60;;;3.40;99.90;;;;;;5025054;28;20201;-66
2022/12/01 12:10:20;;;;;;;72.73;40.80;;;3.50;99.90;;;;;;5019719;28;20537;-64
2022/12/01 12:13:25;;;;;;;73.87;39.80;;;3.40;99.90;;;;;;5017815;28;20261;-64
2022/12/01 12:16:28;;;;;;;70.90;39.53;;;3.40;99.90;;;;;;5002753;28;20216;-64
2022/12/01 12:19:16;;;;;;;71.00;40.47;;;3.40;99.90;;;;;;4976577;28;20206;-68
2022/12/01 12:22:06;;;;;;;64.80;38.80;;;3.40;99.90;;;;;;5017898;28;20844;-65
2022/12/01 12:24:47;;;;;;;70.43;38.50;;;3.40;99.90;;;;;;5014086;28;20662;-68
2022/12/01 12:27:33;;;;;;;63.17;37.40;;;3.50;99.90;;;;;;5007072;28;20573;-66
2022/12/01 12:30:18;;;;;;;67.43;37.87;;;3.40;99.90;;;;;;5002269;28;20214;-68
2022/12/01 12:33:26;;;;;;;67.17;37.40;;;3.50;99.90;;;;;;5006860;28;20237;-70
2022/12/01 12:36:27;;;;;;;59.67;35.67;;;3.50;99.90;;;;;;5003362;28;20815;-67
2022/12/01 12:39:13;;;;;;;62.80;36.17;;;3.50;99.90;;;;;;4958606;28;20682;-66
2022/12/01 12:41:56;;;;;;;61.83;36.37;;;3.50;99.90;;;;;;5004192;28;20255;-66
2022/12/01 12:44:41;;;;;;;66.57;36.50;;;3.50;99.90;;;;;;5021924;28;20210;-68
2022/12/01 12:47:35;;;;;;;62.33;38.97;;;3.40;99.90;;;;;;5002791;28;20611;-67
2022/12/01 12:50:27;;;;;;;73.17;39.33;;;3.40;99.90;;;;;;5009759;28;20722;-67
2022/12/01 12:52:59;;;;;;;65.20;37.10;;;3.40;99.90;;;;;;5011516;28;20198;-67
2022/12/01 12:55:40;;;;;;;59.00;35.33;;;3.30;99.90;;;;;;5004521;28;20238;-67
2022/12/01 12:58:13;;;;;;;62.83;37.33;;;3.40;99.90;;;;;;5018603;28;20239;-65